Terminal Aerodrome Forecast
Issued by NWS Pittsburgh, PA

Current Version | Previous Version | Graphics & Text | Print | Product List | Glossary On
Versions: 1 2 3 4 5 6 7 8 9 10 11 12 13 14 15 16 17 18 19 20 21 22 23 24 25 26 27 28 29 30 31 32 33 34 35 36
045
FTUS41 KPBZ 161120
TAFPIT
TAF
KPIT 161120Z 1612/1718 00000KT P6SM BKN150
     FM161400 10005KT P6SM BKN070
     FM162100 10003KT P6SM OVC025
     FM170000 11003KT P6SM OVC010
     FM170800 14005KT 2SM -RA BR OVC008
     FM171200 18008KT 2SM -RA BR OVC008=

USA.gov is the U.S. government's official web portal to all federal, state and local government web resources and services.